sensor_id;sensor_type;location;lat;lon;timestamp;P1;durP1;ratioP1;P2;durP2;ratioP2
77362;SDS011;66428;47.322;9.432;2024-02-14T00:00:14;3.58;;;1.50;;
77362;SDS011;66428;47.322;9.432;2024-02-14T00:02:45;1.95;;;1.45;;
77362;SDS011;66428;47.322;9.432;2024-02-14T00:05:16;1.80;;;1.30;;
77362;SDS011;66428;47.322;9.432;2024-02-14T00:07:44;1.88;;;1.27;;
77362;SDS011;66428;47.322;9.432;2024-02-14T00:10:13;1.60;;;1.25;;
77362;SDS011;66428;47.322;9.432;2024-02-14T00:12:41;1.20;;;1.00;;
77362;SDS011;66428;47.322;9.432;2024-02-14T00:15:09;1.55;;;1.17;;
77362;SDS011;66428;47.322;9.432;2024-02-14T00:17:37;2.63;;;1.17;;
77362;SDS011;66428;47.322;9.432;2024-02-14T00:20:06;2.10;;;1.58;;
77362;SDS011;66428;47.322;9.432;2024-02-14T00:22:34;2.40;;;1.33;;
77362;SDS011;66428;47.322;9.432;2024-02-14T00:25:01;1.58;;;0.82;;
77362;SDS011;66428;47.322;9.432;2024-02-14T00:27:31;2.95;;;1.30;;
77362;SDS011;66428;47.322;9.432;2024-02-14T00:29:58;2.08;;;1.40;;
77362;SDS011;66428;47.322;9.432;2024-02-14T00:32:26;4.43;;;1.42;;
77362;SDS011;66428;47.322;9.432;2024-02-14T00:34:54;3.42;;;1.33;;
77362;SDS011;66428;47.322;9.432;2024-02-14T00:37:24;2.03;;;0.93;;
77362;SDS011;66428;47.322;9.432;2024-02-14T00:39:52;3.47;;;1.55;;
77362;SDS011;66428;47.322;9.432;2024-02-14T00:42:20;2.15;;;1.13;;
77362;SDS011;66428;47.322;9.432;2024-02-14T00:44:49;1.92;;;1.20;;
77362;SDS011;66428;47.322;9.432;2024-02-14T00:47:17;2.72;;;1.52;;
77362;SDS011;66428;47.322;9.432;2024-02-14T00:49:45;2.30;;;1.10;;
77362;SDS011;66428;47.322;9.432;2024-02-14T00:52:13;2.08;;;1.20;;
77362;SDS011;66428;47.322;9.432;2024-02-14T00:54:43;1.80;;;1.20;;
77362;SDS011;66428;47.322;9.432;2024-02-14T00:57:11;2.70;;;1.77;;
77362;SDS011;66428;47.322;9.432;2024-02-14T00:59:39;2.25;;;1.63;;
77362;SDS011;66428;47.322;9.432;2024-02-14T01:02:08;1.88;;;1.40;;
77362;SDS011;66428;47.322;9.432;2024-02-14T01:04:36;1.77;;;1.55;;
77362;SDS011;66428;47.322;9.432;2024-02-14T01:07:03;4.72;;;1.35;;
77362;SDS011;66428;47.322;9.432;2024-02-14T01:09:31;2.25;;;1.20;;
77362;SDS011;66428;47.322;9.432;2024-02-14T01:12:02;2.05;;;1.10;;
77362;SDS011;66428;47.322;9.432;2024-02-14T01:14:33;3.55;;;1.13;;
77362;SDS011;66428;47.322;9.432;2024-02-14T01:17:01;1.10;;;1.00;;
77362;SDS011;66428;47.322;9.432;2024-02-14T01:19:31;1.75;;;1.38;;
77362;SDS011;66428;47.322;9.432;2024-02-14T01:22:00;3.13;;;1.30;;
77362;SDS011;66428;47.322;9.432;2024-02-14T01:24:28;2.10;;;1.27;;
77362;SDS011;66428;47.322;9.432;2024-02-14T01:26:57;2.25;;;1.27;;
77362;SDS011;66428;47.322;9.432;2024-02-14T01:29:25;1.92;;;1.17;;
77362;SDS011;66428;47.322;9.432;2024-02-14T01:31:53;1.83;;;1.10;;
77362;SDS011;66428;47.322;9.432;2024-02-14T01:34:21;2.58;;;0.82;;
77362;SDS011;66428;47.322;9.432;2024-02-14T01:36:53;1.73;;;1.17;;
77362;SDS011;66428;47.322;9.432;2024-02-14T01:39:22;2.13;;;1.33;;
77362;SDS011;66428;47.322;9.432;2024-02-14T01:41:49;1.70;;;1.15;;
77362;SDS011;66428;47.322;9.432;2024-02-14T01:44:17;1.70;;;1.13;;
77362;SDS011;66428;47.322;9.432;2024-02-14T01:46:47;1.52;;;1.13;;
77362;SDS011;66428;47.322;9.432;2024-02-14T01:49:15;3.10;;;1.40;;
77362;SDS011;66428;47.322;9.432;2024-02-14T01:51:43;1.95;;;1.30;;
77362;SDS011;66428;47.322;9.432;2024-02-14T01:54:13;1.88;;;1.13;;
77362;SDS011;66428;47.322;9.432;2024-02-14T01:56:42;2.65;;;1.23;;
77362;SDS011;66428;47.322;9.432;2024-02-14T01:59:11;1.92;;;1.13;;
77362;SDS011;66428;47.322;9.432;2024-02-14T02:01:38;1.63;;;1.30;;
77362;SDS011;66428;47.322;9.432;2024-02-14T02:04:06;2.72;;;1.05;;
77362;SDS011;66428;47.322;9.432;2024-02-14T02:06:34;1.48;;;1.23;;
77362;SDS011;66428;47.322;9.432;2024-02-14T02:09:03;3.55;;;1.38;;
77362;SDS011;66428;47.322;9.432;2024-02-14T02:11:32;1.95;;;1.30;;
77362;SDS011;66428;47.322;9.432;2024-02-14T02:14:11;1.70;;;1.30;;
77362;SDS011;66428;47.322;9.432;2024-02-14T02:16:39;2.97;;;1.80;;
77362;SDS011;66428;47.322;9.432;2024-02-14T02:19:07;2.13;;;1.48;;
77362;SDS011;66428;47.322;9.432;2024-02-14T02:21:38;2.10;;;1.55;;
77362;SDS011;66428;47.322;9.432;2024-02-14T02:24:07;3.35;;;1.25;;
77362;SDS011;66428;47.322;9.432;2024-02-14T02:26:38;2.40;;;1.33;;
77362;SDS011;66428;47.322;9.432;2024-02-14T02:29:06;2.05;;;1.25;;
77362;SDS011;66428;47.322;9.432;2024-02-14T02:31:36;5.50;;;1.20;;
77362;SDS011;66428;47.322;9.432;2024-02-14T02:34:06;2.60;;;1.30;;
77362;SDS011;66428;47.322;9.432;2024-02-14T02:36:38;1.83;;;1.42;;
77362;SDS011;66428;47.322;9.432;2024-02-14T02:39:07;1.42;;;0.98;;
77362;SDS011;66428;47.322;9.432;2024-02-14T02:41:35;2.78;;;1.42;;
77362;SDS011;66428;47.322;9.432;2024-02-14T02:44:03;3.00;;;1.13;;
77362;SDS011;66428;47.322;9.432;2024-02-14T02:46:35;2.03;;;1.30;;
77362;SDS011;66428;47.322;9.432;2024-02-14T02:49:03;2.60;;;1.08;;
77362;SDS011;66428;47.322;9.432;2024-02-14T02:51:32;1.70;;;1.10;;
77362;SDS011;66428;47.322;9.432;2024-02-14T02:53:59;3.58;;;1.33;;
77362;SDS011;66428;47.322;9.432;2024-02-14T02:56:29;2.65;;;1.45;;
77362;SDS011;66428;47.322;9.432;2024-02-14T02:58:57;4.18;;;1.33;;
77362;SDS011;66428;47.322;9.432;2024-02-14T03:01:27;2.90;;;1.42;;
77362;SDS011;66428;47.322;9.432;2024-02-14T03:03:57;3.33;;;1.40;;
77362;SDS011;66428;47.322;9.432;2024-02-14T03:06:25;2.83;;;1.40;;
77362;SDS011;66428;47.322;9.432;2024-02-14T03:08:54;2.78;;;1.90;;
77362;SDS011;66428;47.322;9.432;2024-02-14T03:11:23;4.07;;;1.67;;
77362;SDS011;66428;47.322;9.432;2024-02-14T03:13:56;3.08;;;1.90;;
77362;SDS011;66428;47.322;9.432;2024-02-14T03:16:24;1.90;;;1.40;;
77362;SDS011;66428;47.322;9.432;2024-02-14T03:18:53;2.22;;;1.23;;
77362;SDS011;66428;47.322;9.432;2024-02-14T03:21:21;2.38;;;1.45;;
77362;SDS011;66428;47.322;9.432;2024-02-14T03:23:49;5.50;;;1.63;;
77362;SDS011;66428;47.322;9.432;2024-02-14T03:26:17;1.92;;;1.30;;
77362;SDS011;66428;47.322;9.432;2024-02-14T03:28:45;1.55;;;1.20;;
77362;SDS011;66428;47.322;9.432;2024-02-14T03:31:14;1.75;;;1.20;;
77362;SDS011;66428;47.322;9.432;2024-02-14T03:33:42;2.33;;;1.13;;
77362;SDS011;66428;47.322;9.432;2024-02-14T03:36:10;1.80;;;1.35;;
77362;SDS011;66428;47.322;9.432;2024-02-14T03:38:41;1.95;;;1.30;;
77362;SDS011;66428;47.322;9.432;2024-02-14T03:41:09;1.98;;;1.48;;
77362;SDS011;66428;47.322;9.432;2024-02-14T03:43:39;2.47;;;1.20;;
77362;SDS011;66428;47.322;9.432;2024-02-14T03:46:07;1.80;;;1.50;;
77362;SDS011;66428;47.322;9.432;2024-02-14T03:48:36;4.50;;;1.15;;
77362;SDS011;66428;47.322;9.432;2024-02-14T03:51:04;1.92;;;1.17;;
77362;SDS011;66428;47.322;9.432;2024-02-14T03:53:32;2.05;;;1.27;;
77362;SDS011;66428;47.322;9.432;2024-02-14T03:56:02;1.40;;;1.13;;
77362;SDS011;66428;47.322;9.432;2024-02-14T03:58:30;1.83;;;1.30;;
77362;SDS011;66428;47.322;9.432;2024-02-14T04:01:01;2.65;;;1.55;;
77362;SDS011;66428;47.322;9.432;2024-02-14T04:03:29;1.38;;;1.08;;
77362;SDS011;66428;47.322;9.432;2024-02-14T04:05:58;1.60;;;1.02;;
77362;SDS011;66428;47.322;9.432;2024-02-14T04:08:27;2.65;;;1.35;;
77362;SDS011;66428;47.322;9.432;2024-02-14T04:10:56;3.17;;;1.55;;
77362;SDS011;66428;47.322;9.432;2024-02-14T04:13:23;2.40;;;1.90;;
77362;SDS011;66428;47.322;9.432;2024-02-14T04:15:51;4.63;;;2.33;;
77362;SDS011;66428;47.322;9.432;2024-02-14T04:18:21;3.88;;;1.85;;
77362;SDS011;66428;47.322;9.432;2024-02-14T04:20:49;2.83;;;1.55;;
77362;SDS011;66428;47.322;9.432;2024-02-14T04:23:19;2.53;;;1.60;;
77362;SDS011;66428;47.322;9.432;2024-02-14T04:25:47;3.63;;;1.90;;
77362;SDS011;66428;47.322;9.432;2024-02-14T04:28:15;2.47;;;1.52;;
77362;SDS011;66428;47.322;9.432;2024-02-14T04:30:43;2.90;;;1.75;;
77362;SDS011;66428;47.322;9.432;2024-02-14T04:33:12;4.82;;;1.42;;
77362;SDS011;66428;47.322;9.432;2024-02-14T04:35:40;2.55;;;1.75;;
77362;SDS011;66428;47.322;9.432;2024-02-14T04:38:08;3.38;;;1.95;;
77362;SDS011;66428;47.322;9.432;2024-02-14T04:40:37;2.92;;;1.98;;
77362;SDS011;66428;47.322;9.432;2024-02-14T04:43:05;2.63;;;2.00;;
77362;SDS011;66428;47.322;9.432;2024-02-14T04:45:33;2.58;;;1.92;;
77362;SDS011;66428;47.322;9.432;2024-02-14T04:48:04;6.40;;;2.05;;
77362;SDS011;66428;47.322;9.432;2024-02-14T04:50:32;3.97;;;2.10;;
77362;SDS011;66428;47.322;9.432;2024-02-14T04:53:00;3.45;;;2.13;;
77362;SDS011;66428;47.322;9.432;2024-02-14T04:55:28;4.32;;;2.17;;
77362;SDS011;66428;47.322;9.432;2024-02-14T04:57:57;5.20;;;1.50;;
77362;SDS011;66428;47.322;9.432;2024-02-14T05:00:28;3.08;;;1.58;;
77362;SDS011;66428;47.322;9.432;2024-02-14T05:02:57;3.33;;;1.67;;
77362;SDS011;66428;47.322;9.432;2024-02-14T05:05:28;2.92;;;1.83;;
77362;SDS011;66428;47.322;9.432;2024-02-14T05:07:56;2.53;;;1.52;;
77362;SDS011;66428;47.322;9.432;2024-02-14T05:10:24;8.05;;;1.98;;
77362;SDS011;66428;47.322;9.432;2024-02-14T05:12:54;8.18;;;2.00;;
77362;SDS011;66428;47.322;9.432;2024-02-14T05:15:24;4.90;;;1.88;;
77362;SDS011;66428;47.322;9.432;2024-02-14T05:17:52;40.60;;;14.32;;
77362;SDS011;66428;47.322;9.432;2024-02-14T05:20:20;79.10;;;41.65;;
77362;SDS011;66428;47.322;9.432;2024-02-14T05:22:50;35.50;;;24.10;;
77362;SDS011;66428;47.322;9.432;2024-02-14T05:25:18;46.00;;;24.70;;
77362;SDS011;66428;47.322;9.432;2024-02-14T05:27:46;229.98;;;96.82;;
77362;SDS011;66428;47.322;9.432;2024-02-14T05:30:14;186.05;;;80.38;;
77362;SDS011;66428;47.322;9.432;2024-02-14T05:32:43;45.63;;;22.05;;
77362;SDS011;66428;47.322;9.432;2024-02-14T05:35:11;37.30;;;18.80;;
77362;SDS011;66428;47.322;9.432;2024-02-14T05:37:39;12.95;;;8.68;;
77362;SDS011;66428;47.322;9.432;2024-02-14T05:40:07;8.95;;;5.63;;
77362;SDS011;66428;47.322;9.432;2024-02-14T05:42:37;18.40;;;12.43;;
77362;SDS011;66428;47.322;9.432;2024-02-14T05:45:05;9.70;;;6.38;;
77362;SDS011;66428;47.322;9.432;2024-02-14T05:47:39;5.55;;;3.17;;
77362;SDS011;66428;47.322;9.432;2024-02-14T05:50:08;4.88;;;2.90;;
77362;SDS011;66428;47.322;9.432;2024-02-14T05:52:38;4.20;;;2.42;;
77362;SDS011;66428;47.322;9.432;2024-02-14T05:55:07;3.45;;;2.15;;
77362;SDS011;66428;47.322;9.432;2024-02-14T05:57:35;4.60;;;2.22;;
77362;SDS011;66428;47.322;9.432;2024-02-14T06:00:04;4.68;;;2.08;;
77362;SDS011;66428;47.322;9.432;2024-02-14T06:02:36;3.05;;;1.75;;
77362;SDS011;66428;47.322;9.432;2024-02-14T06:05:06;4.03;;;2.30;;
77362;SDS011;66428;47.322;9.432;2024-02-14T06:07:37;3.83;;;2.17;;
77362;SDS011;66428;47.322;9.432;2024-02-14T06:10:07;4.63;;;2.60;;
77362;SDS011;66428;47.322;9.432;2024-02-14T06:12:35;4.80;;;2.10;;
77362;SDS011;66428;47.322;9.432;2024-02-14T06:15:03;3.65;;;2.25;;
77362;SDS011;66428;47.322;9.432;2024-02-14T06:17:32;6.25;;;2.33;;
77362;SDS011;66428;47.322;9.432;2024-02-14T06:20:00;4.18;;;2.22;;
77362;SDS011;66428;47.322;9.432;2024-02-14T06:22:34;3.08;;;1.85;;
77362;SDS011;66428;47.322;9.432;2024-02-14T06:25:16;3.67;;;2.00;;
77362;SDS011;66428;47.322;9.432;2024-02-14T06:27:44;4.43;;;2.20;;
77362;SDS011;66428;47.322;9.432;2024-02-14T06:30:12;7.15;;;3.03;;
77362;SDS011;66428;47.322;9.432;2024-02-14T06:32:40;4.63;;;2.90;;
77362;SDS011;66428;47.322;9.432;2024-02-14T06:35:08;5.35;;;3.35;;
77362;SDS011;66428;47.322;9.432;2024-02-14T06:37:38;5.95;;;3.00;;
77362;SDS011;66428;47.322;9.432;2024-02-14T06:40:19;4.32;;;2.80;;
77362;SDS011;66428;47.322;9.432;2024-02-14T06:42:47;4.45;;;2.78;;
77362;SDS011;66428;47.322;9.432;2024-02-14T06:45:17;6.38;;;2.53;;
77362;SDS011;66428;47.322;9.432;2024-02-14T06:47:45;3.45;;;2.33;;
77362;SDS011;66428;47.322;9.432;2024-02-14T06:50:12;5.03;;;2.53;;
77362;SDS011;66428;47.322;9.432;2024-02-14T06:52:40;4.38;;;2.53;;
77362;SDS011;66428;47.322;9.432;2024-02-14T06:55:10;4.45;;;3.20;;
77362;SDS011;66428;47.322;9.432;2024-02-14T06:57:40;4.47;;;3.22;;
77362;SDS011;66428;47.322;9.432;2024-02-14T07:00:08;12.43;;;8.27;;
77362;SDS011;66428;47.322;9.432;2024-02-14T07:02:36;8.30;;;6.55;;
77362;SDS011;66428;47.322;9.432;2024-02-14T07:05:04;7.22;;;3.70;;
77362;SDS011;66428;47.322;9.432;2024-02-14T07:07:33;3.92;;;2.58;;
77362;SDS011;66428;47.322;9.432;2024-02-14T07:10:02;3.70;;;2.63;;
77362;SDS011;66428;47.322;9.432;2024-02-14T07:12:32;4.15;;;2.40;;
77362;SDS011;66428;47.322;9.432;2024-02-14T07:15:04;6.45;;;3.20;;
77362;SDS011;66428;47.322;9.432;2024-02-14T07:17:33;4.43;;;2.83;;
77362;SDS011;66428;47.322;9.432;2024-02-14T07:20:03;5.07;;;2.72;;
77362;SDS011;66428;47.322;9.432;2024-02-14T07:22:31;5.93;;;2.70;;
77362;SDS011;66428;47.322;9.432;2024-02-14T07:25:01;3.70;;;1.98;;
77362;SDS011;66428;47.322;9.432;2024-02-14T07:27:29;4.45;;;2.60;;
77362;SDS011;66428;47.322;9.432;2024-02-14T07:29:56;4.88;;;2.58;;
77362;SDS011;66428;47.322;9.432;2024-02-14T07:32:25;4.35;;;2.63;;
77362;SDS011;66428;47.322;9.432;2024-02-14T07:34:56;4.25;;;2.72;;
77362;SDS011;66428;47.322;9.432;2024-02-14T07:37:27;5.18;;;2.65;;
77362;SDS011;66428;47.322;9.432;2024-02-14T07:39:58;5.40;;;2.72;;
77362;SDS011;66428;47.322;9.432;2024-02-14T07:42:25;7.82;;;4.28;;
77362;SDS011;66428;47.322;9.432;2024-02-14T07:44:53;4.85;;;3.38;;
77362;SDS011;66428;47.322;9.432;2024-02-14T07:47:22;7.57;;;4.40;;
77362;SDS011;66428;47.322;9.432;2024-02-14T07:49:52;14.20;;;6.85;;
77362;SDS011;66428;47.322;9.432;2024-02-14T07:52:20;12.18;;;6.13;;
77362;SDS011;66428;47.322;9.432;2024-02-14T07:54:50;11.20;;;5.63;;
77362;SDS011;66428;47.322;9.432;2024-02-14T07:57:21;10.07;;;5.03;;
77362;SDS011;66428;47.322;9.432;2024-02-14T07:59:49;9.63;;;3.92;;
77362;SDS011;66428;47.322;9.432;2024-02-14T08:02:20;13.75;;;4.70;;
77362;SDS011;66428;47.322;9.432;2024-02-14T08:04:50;5.38;;;2.40;;
77362;SDS011;66428;47.322;9.432;2024-02-14T08:07:20;3.63;;;1.92;;
77362;SDS011;66428;47.322;9.432;2024-02-14T08:09:47;4.75;;;2.72;;
77362;SDS011;66428;47.322;9.432;2024-02-14T08:12:15;4.72;;;3.13;;
77362;SDS011;66428;47.322;9.432;2024-02-14T08:14:43;3.85;;;2.35;;
77362;SDS011;66428;47.322;9.432;2024-02-14T08:17:11;4.57;;;3.22;;
77362;SDS011;66428;47.322;9.432;2024-02-14T08:19:39;4.00;;;2.30;;
77362;SDS011;66428;47.322;9.432;2024-02-14T08:22:07;3.40;;;1.98;;
77362;SDS011;66428;47.322;9.432;2024-02-14T08:24:36;5.13;;;2.75;;
77362;SDS011;66428;47.322;9.432;2024-02-14T08:27:04;4.47;;;2.53;;
77362;SDS011;66428;47.322;9.432;2024-02-14T08:29:35;3.00;;;2.28;;
77362;SDS011;66428;47.322;9.432;2024-02-14T08:32:04;3.42;;;2.30;;
77362;SDS011;66428;47.322;9.432;2024-02-14T08:34:35;5.13;;;2.33;;
77362;SDS011;66428;47.322;9.432;2024-02-14T08:37:05;2.95;;;1.90;;
77362;SDS011;66428;47.322;9.432;2024-02-14T08:39:38;2.97;;;1.85;;
77362;SDS011;66428;47.322;9.432;2024-02-14T08:42:07;4.00;;;2.17;;
77362;SDS011;66428;47.322;9.432;2024-02-14T08:44:35;4.18;;;2.25;;
77362;SDS011;66428;47.322;9.432;2024-02-14T08:47:06;3.38;;;1.58;;
77362;SDS011;66428;47.322;9.432;2024-02-14T08:49:35;2.50;;;1.23;;
77362;SDS011;66428;47.322;9.432;2024-02-14T08:52:05;2.78;;;2.00;;
77362;SDS011;66428;47.322;9.432;2024-02-14T08:54:34;3.92;;;2.70;;
77362;SDS011;66428;47.322;9.432;2024-02-14T08:57:04;4.00;;;1.98;;
77362;SDS011;66428;47.322;9.432;2024-02-14T08:59:32;3.08;;;2.28;;
77362;SDS011;66428;47.322;9.432;2024-02-14T09:01:59;3.67;;;2.00;;
77362;SDS011;66428;47.322;9.432;2024-02-14T09:04:29;6.55;;;3.50;;
77362;SDS011;66428;47.322;9.432;2024-02-14T09:06:57;8.77;;;3.55;;
77362;SDS011;66428;47.322;9.432;2024-02-14T09:09:27;6.40;;;3.10;;
77362;SDS011;66428;47.322;9.432;2024-02-14T09:11:54;4.93;;;3.13;;
77362;SDS011;66428;47.322;9.432;2024-02-14T09:14:26;5.72;;;2.78;;
77362;SDS011;66428;47.322;9.432;2024-02-14T09:16:55;4.95;;;2.97;;
77362;SDS011;66428;47.322;9.432;2024-02-14T09:19:23;6.10;;;2.75;;
77362;SDS011;66428;47.322;9.432;2024-02-14T09:21:51;5.40;;;2.45;;
77362;SDS011;66428;47.322;9.432;2024-02-14T09:24:22;4.43;;;2.05;;
77362;SDS011;66428;47.322;9.432;2024-02-14T09:26:50;5.97;;;2.33;;
77362;SDS011;66428;47.322;9.432;2024-02-14T09:29:17;4.15;;;2.10;;
77362;SDS011;66428;47.322;9.432;2024-02-14T09:31:47;3.72;;;2.13;;
77362;SDS011;66428;47.322;9.432;2024-02-14T09:34:15;5.47;;;2.30;;
77362;SDS011;66428;47.322;9.432;2024-02-14T09:36:45;4.28;;;2.10;;
77362;SDS011;66428;47.322;9.432;2024-02-14T09:39:16;7.88;;;2.60;;
77362;SDS011;66428;47.322;9.432;2024-02-14T09:41:48;4.05;;;2.25;;
77362;SDS011;66428;47.322;9.432;2024-02-14T09:44:19;7.80;;;2.30;;
77362;SDS011;66428;47.322;9.432;2024-02-14T09:46:48;6.60;;;2.60;;
77362;SDS011;66428;47.322;9.432;2024-02-14T09:49:18;6.30;;;2.80;;
77362;SDS011;66428;47.322;9.432;2024-02-14T09:51:47;3.67;;;2.00;;
77362;SDS011;66428;47.322;9.432;2024-02-14T09:54:15;4.55;;;2.08;;
77362;SDS011;66428;47.322;9.432;2024-02-14T09:56:48;3.72;;;1.88;;
77362;SDS011;66428;47.322;9.432;2024-02-14T09:59:19;5.82;;;2.53;;
77362;SDS011;66428;47.322;9.432;2024-02-14T10:01:49;2.50;;;1.40;;
77362;SDS011;66428;47.322;9.432;2024-02-14T10:04:18;2.55;;;1.75;;
77362;SDS011;66428;47.322;9.432;2024-02-14T10:06:51;3.10;;;1.63;;
77362;SDS011;66428;47.322;9.432;2024-02-14T10:09:20;3.33;;;1.60;;
77362;SDS011;66428;47.322;9.432;2024-02-14T10:11:48;2.35;;;1.25;;
77362;SDS011;66428;47.322;9.432;2024-02-14T10:14:18;2.97;;;1.15;;
77362;SDS011;66428;47.322;9.432;2024-02-14T10:16:45;2.63;;;1.58;;
77362;SDS011;66428;47.322;9.432;2024-02-14T10:19:17;2.58;;;1.55;;
77362;SDS011;66428;47.322;9.432;2024-02-14T10:21:54;3.72;;;1.27;;
77362;SDS011;66428;47.322;9.432;2024-02-14T10:24:23;2.33;;;1.25;;
77362;SDS011;66428;47.322;9.432;2024-02-14T10:26:51;2.22;;;1.65;;
77362;SDS011;66428;47.322;9.432;2024-02-14T10:29:19;4.43;;;2.05;;
77362;SDS011;66428;47.322;9.432;2024-02-14T10:31:48;5.20;;;2.55;;
77362;SDS011;66428;47.322;9.432;2024-02-14T10:34:17;3.95;;;2.00;;
77362;SDS011;66428;47.322;9.432;2024-02-14T10:36:49;6.60;;;1.75;;
77362;SDS011;66428;47.322;9.432;2024-02-14T10:39:18;3.03;;;1.90;;
77362;SDS011;66428;47.322;9.432;2024-02-14T10:41:46;2.97;;;1.80;;
77362;SDS011;66428;47.322;9.432;2024-02-14T10:44:14;4.68;;;1.90;;
77362;SDS011;66428;47.322;9.432;2024-02-14T10:46:42;6.00;;;2.10;;
77362;SDS011;66428;47.322;9.432;2024-02-14T10:49:12;4.18;;;1.33;;
77362;SDS011;66428;47.322;9.432;2024-02-14T10:51:44;5.10;;;1.58;;
77362;SDS011;66428;47.322;9.432;2024-02-14T10:54:14;3.38;;;1.73;;
77362;SDS011;66428;47.322;9.432;2024-02-14T10:56:48;2.95;;;1.77;;
77362;SDS011;66428;47.322;9.432;2024-02-14T10:59:20;4.32;;;1.60;;
77362;SDS011;66428;47.322;9.432;2024-02-14T11:01:49;2.08;;;1.55;;
77362;SDS011;66428;47.322;9.432;2024-02-14T11:04:18;2.47;;;1.67;;
77362;SDS011;66428;47.322;9.432;2024-02-14T11:06:47;3.63;;;1.55;;
77362;SDS011;66428;47.322;9.432;2024-02-14T11:09:18;3.08;;;1.45;;
77362;SDS011;66428;47.322;9.432;2024-02-14T11:11:46;4.32;;;1.80;;
77362;SDS011;66428;47.322;9.432;2024-02-14T11:14:14;6.10;;;1.85;;
77362;SDS011;66428;47.322;9.432;2024-02-14T11:16:44;2.55;;;1.35;;
77362;SDS011;66428;47.322;9.432;2024-02-14T11:19:14;6.00;;;1.90;;
77362;SDS011;66428;47.322;9.432;2024-02-14T11:21:45;3.35;;;1.90;;
77362;SDS011;66428;47.322;9.432;2024-02-14T11:24:18;2.83;;;1.58;;
77362;SDS011;66428;47.322;9.432;2024-02-14T11:26:46;3.03;;;1.40;;
77362;SDS011;66428;47.322;9.432;2024-02-14T11:31:57;3.85;;;1.70;;
77362;SDS011;66428;47.322;9.432;2024-02-14T11:34:27;3.53;;;1.70;;
77362;SDS011;66428;47.322;9.432;2024-02-14T11:37:02;3.33;;;1.40;;
77362;SDS011;66428;47.322;9.432;2024-02-14T11:39:34;3.45;;;1.63;;
77362;SDS011;66428;47.322;9.432;2024-02-14T11:42:05;2.78;;;1.58;;
77362;SDS011;66428;47.322;9.432;2024-02-14T11:44:35;2.80;;;1.25;;
77362;SDS011;66428;47.322;9.432;2024-02-14T11:47:04;2.47;;;1.50;;
77362;SDS011;66428;47.322;9.432;2024-02-14T11:49:32;2.45;;;1.23;;
77362;SDS011;66428;47.322;9.432;2024-02-14T11:52:01;3.13;;;1.67;;
77362;SDS011;66428;47.322;9.432;2024-02-14T11:54:30;3.08;;;1.40;;
77362;SDS011;66428;47.322;9.432;2024-02-14T11:57:01;2.67;;;1.58;;
77362;SDS011;66428;47.322;9.432;2024-02-14T11:59:29;3.95;;;1.80;;
77362;SDS011;66428;47.322;9.432;2024-02-14T12:01:57;3.97;;;1.42;;
77362;SDS011;66428;47.322;9.432;2024-02-14T12:04:25;1.55;;;0.93;;
77362;SDS011;66428;47.322;9.432;2024-02-14T12:06:53;2.53;;;1.65;;
77362;SDS011;66428;47.322;9.432;2024-02-14T12:09:21;3.00;;;1.10;;
77362;SDS011;66428;47.322;9.432;2024-02-14T12:11:49;4.60;;;1.77;;
77362;SDS011;66428;47.322;9.432;2024-02-14T12:14:18;4.07;;;1.70;;
77362;SDS011;66428;47.322;9.432;2024-02-14T12:16:51;2.70;;;1.85;;
77362;SDS011;66428;47.322;9.432;2024-02-14T12:19:23;3.20;;;1.58;;
77362;SDS011;66428;47.322;9.432;2024-02-14T12:21:56;4.43;;;1.67;;
77362;SDS011;66428;47.322;9.432;2024-02-14T12:24:29;2.47;;;1.42;;
77362;SDS011;66428;47.322;9.432;2024-02-14T12:26:57;4.07;;;1.15;;
77362;SDS011;66428;47.322;9.432;2024-02-14T12:29:26;2.67;;;1.20;;
77362;SDS011;66428;47.322;9.432;2024-02-14T12:32:02;2.20;;;1.30;;
77362;SDS011;66428;47.322;9.432;2024-02-14T12:34:30;3.53;;;1.15;;
77362;SDS011;66428;47.322;9.432;2024-02-14T12:36:59;2.50;;;1.08;;
77362;SDS011;66428;47.322;9.432;2024-02-14T12:39:27;2.20;;;0.93;;
77362;SDS011;66428;47.322;9.432;2024-02-14T12:41:57;2.38;;;1.35;;
77362;SDS011;66428;47.322;9.432;2024-02-14T12:44:30;1.33;;;1.13;;
77362;SDS011;66428;47.322;9.432;2024-02-14T12:46:58;1.40;;;0.80;;
77362;SDS011;66428;47.322;9.432;2024-02-14T12:49:26;0.93;;;0.50;;
77362;SDS011;66428;47.322;9.432;2024-02-14T12:51:54;2.08;;;1.20;;
77362;SDS011;66428;47.322;9.432;2024-02-14T12:54:24;1.55;;;0.70;;
77362;SDS011;66428;47.322;9.432;2024-02-14T12:56:54;1.88;;;1.08;;
77362;SDS011;66428;47.322;9.432;2024-02-14T12:59:22;2.58;;;1.00;;
77362;SDS011;66428;47.322;9.432;2024-02-14T13:01:51;1.73;;;0.90;;
77362;SDS011;66428;47.322;9.432;2024-02-14T13:04:18;1.42;;;0.90;;
77362;SDS011;66428;47.322;9.432;2024-02-14T13:06:49;2.63;;;0.57;;
77362;SDS011;66428;47.322;9.432;2024-02-14T13:09:17;1.63;;;0.75;;
77362;SDS011;66428;47.322;9.432;2024-02-14T13:11:45;1.35;;;1.02;;
77362;SDS011;66428;47.322;9.432;2024-02-14T13:14:12;0.90;;;0.55;;
77362;SDS011;66428;47.322;9.432;2024-02-14T13:16:43;1.83;;;0.77;;
77362;SDS011;66428;47.322;9.432;2024-02-14T13:19:14;0.95;;;0.73;;
77362;SDS011;66428;47.322;9.432;2024-02-14T13:21:45;0.90;;;0.68;;
77362;SDS011;66428;47.322;9.432;2024-02-14T13:24:14;1.85;;;1.17;;
77362;SDS011;66428;47.322;9.432;2024-02-14T13:26:45;1.48;;;0.90;;
77362;SDS011;66428;47.322;9.432;2024-02-14T13:29:16;1.27;;;0.70;;
77362;SDS011;66428;47.322;9.432;2024-02-14T13:31:44;0.98;;;0.60;;
77362;SDS011;66428;47.322;9.432;2024-02-14T13:34:12;1.33;;;0.82;;
77362;SDS011;66428;47.322;9.432;2024-02-14T13:36:43;0.95;;;0.82;;
77362;SDS011;66428;47.322;9.432;2024-02-14T13:39:10;1.58;;;0.90;;
77362;SDS011;66428;47.322;9.432;2024-02-14T13:41:38;2.22;;;1.20;;
77362;SDS011;66428;47.322;9.432;2024-02-14T13:44:06;0.70;;;0.52;;
77362;SDS011;66428;47.322;9.432;2024-02-14T13:46:37;1.35;;;0.82;;
77362;SDS011;66428;47.322;9.432;2024-02-14T13:49:05;1.40;;;0.65;;
77362;SDS011;66428;47.322;9.432;2024-02-14T13:51:35;0.70;;;0.40;;
77362;SDS011;66428;47.322;9.432;2024-02-14T13:54:07;1.95;;;1.00;;
77362;SDS011;66428;47.322;9.432;2024-02-14T13:56:38;2.05;;;0.95;;
77362;SDS011;66428;47.322;9.432;2024-02-14T13:59:06;1.50;;;1.02;;
77362;SDS011;66428;47.322;9.432;2024-02-14T14:01:34;1.70;;;1.00;;
77362;SDS011;66428;47.322;9.432;2024-02-14T14:04:01;1.75;;;1.27;;
77362;SDS011;66428;47.322;9.432;2024-02-14T14:06:30;1.58;;;0.63;;
77362;SDS011;66428;47.322;9.432;2024-02-14T14:08:58;2.15;;;1.73;;
77362;SDS011;66428;47.322;9.432;2024-02-14T14:11:28;0.95;;;0.82;;
77362;SDS011;66428;47.322;9.432;2024-02-14T14:13:55;1.38;;;0.93;;
77362;SDS011;66428;47.322;9.432;2024-02-14T14:16:23;1.15;;;0.88;;
77362;SDS011;66428;47.322;9.432;2024-02-14T14:18:51;0.98;;;0.73;;
77362;SDS011;66428;47.322;9.432;2024-02-14T14:21:20;1.92;;;0.90;;
77362;SDS011;66428;47.322;9.432;2024-02-14T14:23:48;2.63;;;0.60;;
77362;SDS011;66428;47.322;9.432;2024-02-14T14:26:16;2.67;;;0.73;;
77362;SDS011;66428;47.322;9.432;2024-02-14T14:28:48;1.70;;;0.50;;
77362;SDS011;66428;47.322;9.432;2024-02-14T14:31:18;1.80;;;0.65;;
77362;SDS011;66428;47.322;9.432;2024-02-14T14:33:45;1.02;;;0.80;;
77362;SDS011;66428;47.322;9.432;2024-02-14T14:36:13;1.48;;;0.93;;
77362;SDS011;66428;47.322;9.432;2024-02-14T14:38:41;1.38;;;0.60;;
77362;SDS011;66428;47.322;9.432;2024-02-14T14:41:09;1.33;;;0.70;;
77362;SDS011;66428;47.322;9.432;2024-02-14T14:43:37;1.10;;;0.70;;
77362;SDS011;66428;47.322;9.432;2024-02-14T14:46:07;1.38;;;0.90;;
77362;SDS011;66428;47.322;9.432;2024-02-14T14:48:34;1.80;;;0.80;;
77362;SDS011;66428;47.322;9.432;2024-02-14T14:51:04;2.75;;;1.00;;
77362;SDS011;66428;47.322;9.432;2024-02-14T14:53:33;1.90;;;1.17;;
77362;SDS011;66428;47.322;9.432;2024-02-14T14:56:02;1.17;;;0.70;;
77362;SDS011;66428;47.322;9.432;2024-02-14T14:58:29;0.70;;;0.52;;